createdAt,value
2022-11-01T00:00:26.005Z,10.11
2022-11-01T00:02:52.603Z,10.14
2022-11-01T00:05:19.208Z,10.11
2022-11-01T00:07:46.906Z,10.13
2022-11-01T00:10:13.728Z,10.11
2022-11-01T00:12:41.288Z,10.05
2022-11-01T00:15:08.106Z,10.04
2022-11-01T00:17:34.727Z,10.04
2022-11-01T00:20:01.381Z,10.00
2022-11-01T00:22:28.089Z,9.99
2022-11-01T00:24:55.074Z,9.99
2022-11-01T00:27:21.870Z,9.97
2022-11-01T00:29:48.501Z,9.98
2022-11-01T00:32:15.181Z,10.02
2022-11-01T00:34:41.779Z,10.02
2022-11-01T00:37:08.421Z,10.03
2022-11-01T00:39:35.142Z,10.01
2022-11-01T00:42:07.895Z,10.00
2022-11-01T00:44:34.523Z,10.02
2022-11-01T00:47:01.135Z,10.05
2022-11-01T00:49:27.727Z,10.05
2022-11-01T00:51:54.332Z,10.07
2022-11-01T00:54:20.928Z,10.07
2022-11-01T00:56:47.543Z,10.06
2022-11-01T00:59:14.136Z,10.08
2022-11-01T01:01:40.894Z,10.11
2022-11-01T01:04:07.566Z,10.08
2022-11-01T01:06:34.218Z,10.06
2022-11-01T01:09:01.177Z,10.07
2022-11-01T01:11:28.466Z,10.09
2022-11-01T01:13:55.088Z,10.10
2022-11-01T01:16:22.102Z,10.12
2022-11-01T01:18:48.751Z,10.12
2022-11-01T01:21:16.419Z,10.12
2022-11-01T01:23:43.560Z,10.12
2022-11-01T01:26:11.373Z,10.10
2022-11-01T01:28:41.906Z,10.12
2022-11-01T01:31:12.952Z,10.08
2022-11-01T01:33:39.703Z,10.07
2022-11-01T01:36:06.772Z,10.06
2022-11-01T01:38:33.546Z,10.05
2022-11-01T01:41:20.086Z,10.04
2022-11-01T01:43:47.139Z,10.06
2022-11-01T01:46:13.796Z,10.04
2022-11-01T01:48:43.364Z,10.06
2022-11-01T01:51:14.982Z,10.00
2022-11-01T01:53:45.248Z,9.97
2022-11-01T01:56:16.345Z,9.94
2022-11-01T01:58:50.575Z,9.89
2022-11-01T02:01:17.562Z,9.84
2022-11-01T02:03:44.724Z,9.82
2022-11-01T02:06:13.163Z,9.84
2022-11-01T02:08:43.262Z,9.84
2022-11-01T02:11:11.479Z,9.85
2022-11-01T02:13:38.527Z,9.85
2022-11-01T02:16:20.520Z,9.84
2022-11-01T02:19:17.807Z,9.85
2022-11-01T02:22:00.463Z,9.89
2022-11-01T02:24:53.005Z,9.88
2022-11-01T02:27:34.895Z,9.88
2022-11-01T02:30:09.942Z,9.87
2022-11-01T02:32:39.710Z,9.88
2022-11-01T02:35:18.148Z,9.88
2022-11-01T02:37:53.429Z,9.90
2022-11-01T02:40:27.503Z,9.93
2022-11-01T02:43:00.144Z,9.96
2022-11-01T02:45:44.674Z,9.97
2022-11-01T02:48:11.468Z,9.98
2022-11-01T02:50:42.424Z,9.98
2022-11-01T02:53:10.034Z,9.97
2022-11-01T02:55:36.771Z,10.00
2022-11-01T02:58:20.052Z,9.99
2022-11-01T03:00:46.770Z,9.97
2022-11-01T03:03:17.146Z,9.97
2022-11-01T03:05:45.022Z,9.97
2022-11-01T03:08:17.034Z,9.89
2022-11-01T03:11:05.376Z,9.93
2022-11-01T03:13:44.670Z,9.90
2022-11-01T03:16:15.714Z,9.95
2022-11-01T03:18:57.692Z,9.97
2022-11-01T03:21:28.617Z,9.94
2022-11-01T03:24:03.172Z,9.97
2022-11-01T03:26:33.625Z,9.97
2022-11-01T03:29:06.724Z,9.98
2022-11-01T03:31:41.403Z,10.01
2022-11-01T03:34:13.871Z,10.01
2022-11-01T03:36:47.291Z,10.00
2022-11-01T03:39:21.589Z,10.00
2022-11-01T03:41:52.615Z,9.98
2022-11-01T03:44:21.000Z,9.98
2022-11-01T03:46:47.723Z,9.97
2022-11-01T03:49:18.688Z,9.98
2022-11-01T03:51:46.251Z,9.97
2022-11-01T03:54:12.834Z,9.97
2022-11-01T03:56:40.704Z,9.98
2022-11-01T03:59:08.699Z,9.97
2022-11-01T04:01:35.898Z,9.94
2022-11-01T04:04:03.306Z,9.93
2022-11-01T04:06:30.030Z,9.91
2022-11-01T04:08:57.024Z,9.91
2022-11-01T04:11:23.629Z,9.90
2022-11-01T04:13:50.376Z,9.87
2022-11-01T04:16:32.180Z,9.82
2022-11-01T04:19:14.212Z,9.81
2022-11-01T04:21:41.148Z,9.80
2022-11-01T04:24:08.715Z,9.75
2022-11-01T04:26:35.912Z,9.73
2022-11-01T04:29:02.572Z,9.69
2022-11-01T04:31:30.375Z,9.67
2022-11-01T04:33:58.527Z,9.64
2022-11-01T04:36:25.736Z,9.65
2022-11-01T04:38:55.928Z,9.58
2022-11-01T04:41:24.465Z,9.55
2022-11-01T04:43:54.552Z,9.55
2022-11-01T04:46:21.545Z,9.51
2022-11-01T04:48:48.532Z,9.49
2022-11-01T04:51:15.207Z,9.46
2022-11-01T04:53:41.854Z,9.46
2022-11-01T04:56:10.125Z,9.43
2022-11-01T04:58:41.436Z,9.43
2022-11-01T05:01:12.006Z,9.41
2022-11-01T05:03:38.711Z,9.37
2022-11-01T05:06:05.498Z,9.38
2022-11-01T05:08:32.252Z,9.37
2022-11-01T05:10:58.897Z,9.35
2022-11-01T05:13:25.585Z,9.33
2022-11-01T05:16:06.440Z,9.31
2022-11-01T05:18:40.922Z,9.31
2022-11-01T05:21:07.522Z,9.29
2022-11-01T05:23:34.135Z,9.25
2022-11-01T05:26:00.743Z,9.22
2022-11-01T05:28:27.342Z,9.22
2022-11-01T05:30:53.951Z,9.20
2022-11-01T05:33:20.622Z,9.16
2022-11-01T05:35:47.238Z,9.15
2022-11-01T05:38:13.848Z,9.14
2022-11-01T05:40:40.486Z,9.13
2022-11-01T05:43:07.111Z,9.13
2022-11-01T05:45:33.785Z,9.13
2022-11-01T05:48:03.258Z,9.12
2022-11-01T05:50:29.991Z,9.13
2022-11-01T05:53:04.673Z,9.11
2022-11-01T05:55:31.458Z,9.11
2022-11-01T05:57:59.130Z,9.13
2022-11-01T06:00:25.723Z,9.10
2022-11-01T06:02:52.387Z,9.10
2022-11-01T06:05:19.041Z,9.12
2022-11-01T06:07:45.665Z,9.13
2022-11-01T06:10:12.310Z,9.25
2022-11-01T06:12:38.914Z,9.20
2022-11-01T06:15:05.916Z,9.14
2022-11-01T06:17:32.552Z,9.12
2022-11-01T06:19:59.704Z,9.12
2022-11-01T06:22:26.345Z,9.18
2022-11-01T06:24:52.982Z,9.19
2022-11-01T06:27:19.719Z,9.16
2022-11-01T06:29:46.319Z,9.27
2022-11-01T06:32:13.158Z,9.25
2022-11-01T06:34:42.433Z,9.23
2022-11-01T06:37:11.749Z,9.31
2022-11-01T06:39:38.440Z,9.19
2022-11-01T06:42:05.783Z,9.18
2022-11-01T06:44:32.386Z,9.16
2022-11-01T06:46:59.430Z,9.18
2022-11-01T06:49:26.088Z,9.22
2022-11-01T06:51:52.870Z,9.26
2022-11-01T06:54:19.485Z,9.29
2022-11-01T06:56:47.788Z,9.23
2022-11-01T06:59:16.529Z,9.22
2022-11-01T07:01:44.381Z,9.25
2022-11-01T07:06:43.112Z,9.31
2022-11-01T07:09:10.398Z,9.28
2022-11-01T07:11:37.057Z,9.33
2022-11-01T07:14:03.870Z,9.31
2022-11-01T07:16:33.734Z,9.29
2022-11-01T07:19:00.369Z,9.30
2022-11-01T07:21:27.299Z,9.30
2022-11-01T07:23:54.303Z,9.34
2022-11-01T07:26:21.445Z,9.30
2022-11-01T07:28:48.021Z,9.29
2022-11-01T07:31:14.631Z,9.38
2022-11-01T07:33:41.405Z,9.34
2022-11-01T07:36:08.597Z,9.35
2022-11-01T07:38:35.214Z,9.39
2022-11-01T07:41:04.677Z,9.34
2022-11-01T07:43:31.551Z,9.34
2022-11-01T07:46:00.888Z,9.36
2022-11-01T07:48:27.798Z,9.63
2022-11-01T07:50:57.297Z,9.47
2022-11-01T07:53:24.086Z,9.45
2022-11-01T07:55:51.438Z,9.42
2022-11-01T07:58:18.099Z,9.45
2022-11-01T08:00:45.737Z,9.46
2022-11-01T08:03:16.445Z,9.42
2022-11-01T08:05:44.355Z,9.44
2022-11-01T08:08:11.647Z,9.45
2022-11-01T08:10:39.158Z,9.49
2022-11-01T08:13:09.249Z,9.51
2022-11-01T08:15:36.151Z,9.52
2022-11-01T08:18:03.299Z,9.54
2022-11-01T08:20:30.456Z,9.57
2022-11-01T08:22:57.597Z,9.59
2022-11-01T08:25:25.179Z,9.59
2022-11-01T08:27:52.270Z,9.64
2022-11-01T08:30:19.915Z,9.64
2022-11-01T08:32:47.231Z,9.59
2022-11-01T08:35:13.983Z,9.62
2022-11-01T08:37:51.207Z,9.57
2022-11-01T08:40:18.756Z,9.60
2022-11-01T08:42:45.714Z,9.60
2022-11-01T08:45:12.961Z,9.62
2022-11-01T08:47:40.728Z,9.57
2022-11-01T08:50:11.285Z,9.64
2022-11-01T08:52:38.558Z,9.72
2022-11-01T08:55:06.213Z,9.85
2022-11-01T08:57:32.933Z,9.73
2022-11-01T08:59:59.671Z,9.63
2022-11-01T09:02:26.812Z,9.71
2022-11-01T09:04:53.586Z,9.79
2022-11-01T09:07:20.489Z,9.72
2022-11-01T09:09:47.164Z,9.73
2022-11-01T09:12:14.680Z,9.79
2022-11-01T09:14:41.968Z,9.76
2022-11-01T09:17:08.753Z,9.76
2022-11-01T09:19:35.573Z,9.81
2022-11-01T09:22:02.217Z,9.74
2022-11-01T09:24:29.195Z,9.72
2022-11-01T09:26:55.826Z,9.77
2022-11-01T09:29:22.592Z,9.75
2022-11-01T09:31:53.909Z,9.71
2022-11-01T09:34:21.609Z,9.77
2022-11-01T09:36:49.037Z,9.75
2022-11-01T09:39:17.947Z,9.74
2022-11-01T09:41:50.222Z,9.74
2022-11-01T09:44:23.068Z,9.84
2022-11-01T09:46:56.767Z,9.79
2022-11-01T09:49:31.378Z,9.85
2022-11-01T09:52:00.101Z,9.94
2022-11-01T09:54:28.073Z,9.91
2022-11-01T09:57:21.481Z,9.87
2022-11-01T09:59:56.850Z,9.92
2022-11-01T10:02:53.151Z,10.00
2022-11-01T10:05:48.582Z,10.09
2022-11-01T10:08:35.251Z,10.06
2022-11-01T10:11:17.266Z,10.12
2022-11-01T10:14:04.711Z,10.06
2022-11-01T10:16:42.079Z,10.13
2022-11-01T10:19:11.436Z,10.18
2022-11-01T10:21:44.675Z,10.19
2022-11-01T10:24:18.791Z,10.15
2022-11-01T10:26:46.729Z,10.26
2022-11-01T10:29:21.459Z,10.19
2022-11-01T10:31:52.832Z,10.22
2022-11-01T10:34:24.152Z,10.31
2022-11-01T10:36:51.698Z,10.34
2022-11-01T10:39:54.637Z,10.34
2022-11-01T10:42:23.527Z,10.31
2022-11-01T10:44:55.427Z,10.28
2022-11-01T10:47:24.377Z,10.29
2022-11-01T10:50:05.390Z,10.29
2022-11-01T10:52:46.611Z,10.31
2022-11-01T10:55:19.583Z,10.42
2022-11-01T10:57:53.489Z,10.39
2022-11-01T11:00:21.654Z,10.44
2022-11-01T11:02:55.250Z,10.50
2022-11-01T11:05:24.378Z,10.64
2022-11-01T11:07:51.819Z,10.65
2022-11-01T11:10:26.695Z,10.54
2022-11-01T11:12:59.233Z,10.56
2022-11-01T11:15:37.270Z,10.58
2022-11-01T11:18:16.197Z,10.65
2022-11-01T11:20:43.957Z,10.78
2022-11-01T11:23:12.942Z,10.81
2022-11-01T11:25:42.202Z,10.89
2022-11-01T11:28:22.546Z,10.94
2022-11-01T11:30:50.602Z,11.01
2022-11-01T11:33:18.374Z,11.01
2022-11-01T11:35:58.596Z,11.00
2022-11-01T11:38:41.974Z,11.18
2022-11-01T11:41:10.650Z,11.23
2022-11-01T11:43:41.065Z,11.25
2022-11-01T11:46:22.809Z,11.19
2022-11-01T11:49:01.127Z,11.20
2022-11-01T11:51:30.905Z,11.21
2022-11-01T11:54:09.129Z,11.29
2022-11-01T11:56:35.871Z,11.41
2022-11-01T11:59:08.801Z,11.31
2022-11-01T12:01:35.883Z,11.30
2022-11-01T12:04:16.264Z,11.30
2022-11-01T12:06:45.735Z,11.37
2022-11-01T12:09:37.929Z,11.38
2022-11-01T12:12:08.577Z,11.34
2022-11-01T12:14:38.731Z,11.29
2022-11-01T12:17:23.015Z,11.36
2022-11-01T12:19:49.705Z,11.37
2022-11-01T12:22:16.412Z,11.30
2022-11-01T12:24:48.345Z,11.39
2022-11-01T12:27:22.741Z,11.54
2022-11-01T12:29:53.755Z,11.54
2022-11-01T12:32:35.137Z,11.45
2022-11-01T12:35:06.411Z,11.46
2022-11-01T12:37:54.096Z,11.50
2022-11-01T12:40:28.619Z,11.57
2022-11-01T12:43:01.500Z,11.61
2022-11-01T12:45:47.614Z,11.54
2022-11-01T12:48:22.594Z,11.56
2022-11-01T12:50:58.386Z,11.62
2022-11-01T12:53:34.551Z,11.61
2022-11-01T12:56:01.390Z,11.53
2022-11-01T12:58:33.491Z,11.74
2022-11-01T13:01:24.425Z,11.77
2022-11-01T13:04:15.888Z,11.63
2022-11-01T13:06:58.716Z,11.62
2022-11-01T13:09:45.625Z,11.61
2022-11-01T13:12:21.075Z,11.64
2022-11-01T13:14:59.619Z,11.68
2022-11-01T13:17:59.321Z,11.73
2022-11-01T13:20:46.978Z,11.75
2022-11-01T13:23:21.948Z,11.78
2022-11-01T13:25:55.860Z,11.77
2022-11-01T13:28:38.794Z,11.77
2022-11-01T13:31:27.264Z,11.79
2022-11-01T13:34:15.316Z,11.79
2022-11-01T13:36:41.910Z,11.80
2022-11-01T13:39:23.907Z,11.78
2022-11-01T13:42:06.706Z,11.77
2022-11-01T13:44:40.715Z,11.79
2022-11-01T13:47:22.698Z,11.81
2022-11-01T13:50:24.505Z,11.80
2022-11-01T13:53:00.304Z,11.78
2022-11-01T13:55:34.809Z,11.78
2022-11-01T13:58:01.793Z,11.77
2022-11-01T14:00:46.716Z,11.77
2022-11-01T14:03:22.846Z,11.79
2022-11-01T14:06:14.018Z,11.77
2022-11-01T14:08:42.542Z,11.78
2022-11-01T14:11:33.960Z,11.77
2022-11-01T14:14:00.581Z,11.75
2022-11-01T14:16:28.208Z,11.72
2022-11-01T14:19:19.228Z,11.73
2022-11-01T14:21:49.445Z,11.74
2022-11-01T14:24:21.443Z,11.72
2022-11-01T14:26:50.107Z,11.70
2022-11-01T14:29:17.107Z,11.70
2022-11-01T14:31:46.342Z,11.69
2022-11-01T14:34:24.485Z,11.68
2022-11-01T14:36:54.100Z,11.69
2022-11-01T14:39:29.977Z,11.69
2022-11-01T14:41:58.786Z,11.69
2022-11-01T14:44:32.780Z,11.70
2022-11-01T14:47:05.248Z,11.69
2022-11-01T14:49:40.052Z,11.69
2022-11-01T14:52:10.811Z,11.67
2022-11-01T14:55:04.049Z,11.67
2022-11-01T14:57:33.545Z,11.67
2022-11-01T15:00:21.925Z,11.66
2022-11-01T15:02:49.926Z,11.67
2022-11-01T15:05:17.152Z,11.67
2022-11-01T15:07:50.076Z,11.66
2022-11-01T15:10:17.121Z,11.65
2022-11-01T15:12:58.953Z,11.64
2022-11-01T15:15:29.633Z,11.62
2022-11-01T15:18:01.348Z,11.63
2022-11-01T15:20:39.094Z,11.62
2022-11-01T15:23:11.097Z,11.60
2022-11-01T15:25:40.875Z,11.60
2022-11-01T15:28:07.669Z,11.59
2022-11-01T15:30:34.846Z,11.56
2022-11-01T15:33:20.783Z,11.55
2022-11-01T15:36:08.882Z,11.55
2022-11-01T15:38:56.132Z,11.54
2022-11-01T15:41:29.500Z,11.50
2022-11-01T15:43:58.421Z,11.47
2022-11-01T15:46:30.801Z,11.46
2022-11-01T15:49:03.463Z,11.46
2022-11-01T15:51:30.972Z,11.46
2022-11-01T15:54:06.086Z,11.46
2022-11-01T15:56:42.476Z,11.47
2022-11-01T15:59:20.098Z,11.44
2022-11-01T16:01:48.845Z,11.43
2022-11-01T16:04:19.800Z,11.57
2022-11-01T16:06:54.746Z,11.46
2022-11-01T16:09:37.415Z,11.39
2022-11-01T16:12:13.329Z,11.37
2022-11-01T16:14:40.432Z,11.33
2022-11-01T16:17:23.408Z,11.29
2022-11-01T16:19:51.652Z,11.22
2022-11-01T16:22:33.242Z,11.19
2022-11-01T16:25:03.028Z,11.18
2022-11-01T16:27:29.654Z,11.20
2022-11-01T16:29:56.868Z,11.20
2022-11-01T16:32:27.378Z,11.19
2022-11-01T16:34:56.192Z,11.18
2022-11-01T16:37:26.205Z,11.21
2022-11-01T16:39:53.685Z,11.20
2022-11-01T16:42:21.994Z,11.18
2022-11-01T16:44:54.118Z,11.18
2022-11-01T16:47:21.379Z,11.22
2022-11-01T16:49:50.883Z,11.21
2022-11-01T16:52:18.429Z,11.18
2022-11-01T16:54:49.072Z,11.17
2022-11-01T16:57:24.850Z,11.17
2022-11-01T16:59:51.861Z,11.18
2022-11-01T17:02:23.780Z,11.16
2022-11-01T17:04:55.965Z,11.12
2022-11-01T17:07:22.850Z,11.10
2022-11-01T17:09:49.478Z,11.09
2022-11-01T17:12:16.202Z,11.08
2022-11-01T17:14:43.155Z,11.09
2022-11-01T17:17:16.073Z,11.07
2022-11-01T17:19:46.168Z,11.08
2022-11-01T17:22:19.164Z,11.06
2022-11-01T17:24:46.140Z,11.04
2022-11-01T17:27:14.074Z,11.04
2022-11-01T17:29:40.744Z,11.04
2022-11-01T17:32:11.975Z,11.01
2022-11-01T17:34:39.389Z,11.00
2022-11-01T17:37:06.480Z,11.01
2022-11-01T17:39:33.309Z,11.00
2022-11-01T17:41:59.976Z,11.06
2022-11-01T17:44:26.636Z,11.02
2022-11-01T17:46:53.448Z,10.99
2022-11-01T17:49:23.689Z,10.96
2022-11-01T17:51:54.363Z,10.95
2022-11-01T17:54:22.803Z,10.90
2022-11-01T17:56:51.142Z,10.91
2022-11-01T17:59:18.036Z,10.90
2022-11-01T18:01:45.661Z,10.84
2022-11-01T18:04:12.569Z,10.81
2022-11-01T18:06:40.753Z,10.78
2022-11-01T18:09:20.384Z,10.77
2022-11-01T18:12:05.755Z,10.79
2022-11-01T18:14:41.750Z,10.82
2022-11-01T18:17:39.330Z,10.84
2022-11-01T18:20:07.145Z,10.84
2022-11-01T18:22:50.335Z,10.84
2022-11-01T18:25:36.942Z,10.84
2022-11-01T18:28:13.586Z,10.84
2022-11-01T18:30:43.902Z,10.84
2022-11-01T18:33:19.677Z,10.84
2022-11-01T18:35:56.171Z,10.84
2022-11-01T18:38:39.690Z,10.85
2022-11-01T18:41:13.115Z,10.83
2022-11-01T18:43:40.185Z,10.84
2022-11-01T18:46:30.928Z,10.83
2022-11-01T18:49:00.826Z,10.83
2022-11-01T18:51:32.360Z,10.84
2022-11-01T18:54:14.279Z,10.81
2022-11-01T18:56:48.298Z,10.80
2022-11-01T18:59:25.192Z,10.81
2022-11-01T19:01:58.844Z,10.79
2022-11-01T19:04:29.613Z,10.79
2022-11-01T19:07:09.708Z,10.78
2022-11-01T19:09:40.368Z,10.76
2022-11-01T19:12:18.306Z,10.66
2022-11-01T19:14:51.187Z,10.66
2022-11-01T19:17:23.583Z,10.67
2022-11-01T19:19:52.595Z,10.68
2022-11-01T19:22:34.052Z,10.71
2022-11-01T19:25:02.307Z,10.68
2022-11-01T19:27:29.774Z,10.70
2022-11-01T19:29:58.907Z,10.70
2022-11-01T19:32:26.308Z,10.71
2022-11-01T19:34:54.708Z,10.71
2022-11-01T19:37:31.809Z,10.69
2022-11-01T19:40:01.590Z,10.71
2022-11-01T19:42:31.508Z,10.68
2022-11-01T19:45:04.807Z,10.66
2022-11-01T19:47:39.200Z,10.65
2022-11-01T19:50:22.667Z,10.61
2022-11-01T19:52:52.075Z,10.61
2022-11-01T19:55:38.941Z,10.60
2022-11-01T19:58:24.837Z,10.60
2022-11-01T20:01:16.212Z,10.61
2022-11-01T20:03:47.854Z,10.61
2022-11-01T20:06:16.743Z,10.63
2022-11-01T20:08:51.894Z,10.62
2022-11-01T20:11:21.885Z,10.65
2022-11-01T20:14:01.136Z,10.64
2022-11-01T20:16:28.025Z,10.65
2022-11-01T20:18:55.038Z,10.67
2022-11-01T20:21:21.862Z,10.69
2022-11-01T20:23:49.576Z,10.68
2022-11-01T20:26:16.310Z,10.71
2022-11-01T20:28:43.248Z,10.68
2022-11-01T20:31:09.962Z,10.68
2022-11-01T20:33:36.637Z,10.68
2022-11-01T20:36:09.884Z,10.71
2022-11-01T20:38:38.169Z,10.70
2022-11-01T20:41:04.967Z,10.68
2022-11-01T20:43:31.898Z,10.66
2022-11-01T20:45:58.569Z,10.64
2022-11-01T20:48:25.756Z,10.63
2022-11-01T20:50:53.659Z,10.60
2022-11-01T20:53:26.007Z,10.56
2022-11-01T20:55:56.166Z,10.58
2022-11-01T20:58:22.951Z,10.56
2022-11-01T21:00:51.521Z,10.56
2022-11-01T21:03:19.951Z,10.56
2022-11-01T21:05:48.548Z,10.52
2022-11-01T21:08:24.685Z,10.49
2022-11-01T21:11:00.988Z,10.49
2022-11-01T21:13:27.790Z,10.51
2022-11-01T21:15:57.443Z,10.51
2022-11-01T21:18:34.706Z,10.52
2022-11-01T21:21:25.172Z,10.54
2022-11-01T21:23:51.892Z,10.54
2022-11-01T21:26:21.476Z,10.53
2022-11-01T21:28:52.116Z,10.54
2022-11-01T21:31:25.046Z,10.52
2022-11-01T21:33:56.529Z,10.52
2022-11-01T21:36:23.185Z,10.49
2022-11-01T21:38:57.035Z,10.45
2022-11-01T21:41:42.140Z,10.40
2022-11-01T21:44:25.124Z,10.39
2022-11-01T21:46:54.579Z,10.35
2022-11-01T21:49:24.332Z,10.35
2022-11-01T21:51:51.145Z,10.35
2022-11-01T21:54:18.374Z,10.41
2022-11-01T21:56:45.021Z,10.41
2022-11-01T21:59:11.743Z,10.40
2022-11-01T22:01:41.283Z,10.41
2022-11-01T22:04:08.083Z,10.40
2022-11-01T22:06:34.762Z,10.39
2022-11-01T22:09:01.449Z,10.33
2022-11-01T22:11:32.625Z,10.34
2022-11-01T22:13:59.714Z,10.34
2022-11-01T22:16:26.374Z,10.34
2022-11-01T22:18:53.025Z,10.31
2022-11-01T22:21:20.016Z,10.26
2022-11-01T22:23:46.710Z,10.23
2022-11-01T22:26:13.364Z,10.27
2022-11-01T22:28:40.020Z,10.28
2022-11-01T22:31:06.649Z,10.29
2022-11-01T22:33:34.581Z,10.26
2022-11-01T22:36:02.433Z,10.22
2022-11-01T22:38:44.879Z,10.24
2022-11-01T22:41:31.659Z,10.26
2022-11-01T22:44:04.707Z,10.27
2022-11-01T22:46:45.332Z,10.26
2022-11-01T22:49:30.178Z,10.26
2022-11-01T22:52:03.309Z,10.26
2022-11-01T22:54:40.409Z,10.26
2022-11-01T22:57:07.008Z,10.26
2022-11-01T22:59:35.795Z,10.24
2022-11-01T23:02:33.761Z,10.24
2022-11-01T23:05:20.459Z,10.25
2022-11-01T23:07:49.096Z,10.25
2022-11-01T23:10:26.596Z,10.26
2022-11-01T23:13:23.896Z,10.29
2022-11-01T23:15:51.046Z,10.27
2022-11-01T23:18:22.396Z,10.26
2022-11-01T23:21:07.092Z,10.23
2022-11-01T23:23:41.887Z,10.19
2022-11-01T23:26:09.085Z,10.20
2022-11-01T23:28:39.970Z,10.21
2022-11-01T23:31:06.787Z,10.23
2022-11-01T23:33:39.927Z,10.21
2022-11-01T23:36:24.588Z,10.23
2022-11-01T23:41:31.191Z,10.25
2022-11-01T23:44:00.139Z,10.24
2022-11-01T23:46:27.440Z,10.25
2022-11-01T23:49:01.108Z,10.26
2022-11-01T23:51:28.602Z,10.27
2022-11-01T23:53:56.231Z,10.27
2022-11-01T23:56:23.301Z,10.27
2022-11-01T23:58:55.865Z,10.27
